Time;durP1;ratioP1;P1;durP2;ratioP2;P2;SDS_P1;SDS_P2;PMS_P1;PMS_P2;Temp;Humidity;BMP_temperature;BMP_pressure;BME280_temperature;BME280_humidity;BME280_pressure;Samples;Min_cycle;Max_cycle;Signal;HPM_P1;HPM_P2
2021/10/13 00:00:14;;;;;;;1.58;0.90;;;;;;;8.55;68.58;101230.56;6366628;28;20214;-71
2021/10/13 00:03:19;;;;;;;0.80;0.80;;;;;;;8.58;69.15;101224.75;6367697;28;20182;-72
2021/10/13 00:06:24;;;;;;;0.95;0.95;;;;;;;8.34;69.27;101244.16;6366391;28;20412;-72
2021/10/13 00:09:29;;;;;;;1.85;1.17;;;;;;;8.34;69.06;101238.72;6367313;28;20183;-71
2021/10/13 00:12:34;;;;;;;0.98;0.98;;;;;;;8.37;68.88;101241.03;6366895;28;20182;-72
2021/10/13 00:15:38;;;;;;;0.98;0.98;;;;;;;8.28;69.43;101253.09;6367182;28;20213;-71
2021/10/13 00:18:43;;;;;;;0.98;0.90;;;;;;;8.16;69.89;101246.44;6367016;28;20190;-71
2021/10/13 00:21:48;;;;;;;2.17;0.98;;;;;;;7.99;70.53;101253.09;6365944;28;20197;-71
2021/10/13 00:24:52;;;;;;;1.60;1.10;;;;;;;8.05;70.43;101241.50;6367232;28;20214;-71
2021/10/13 00:27:56;;;;;;;0.93;0.93;;;;;;;8.13;70.09;101247.66;6365805;28;20501;-71
2021/10/13 00:31:00;;;;;;;2.17;1.02;;;;;;;8.02;70.35;101252.72;6366775;28;20183;-72
2021/10/13 00:34:05;;;;;;;0.77;0.77;;;;;;;7.93;70.27;101253.88;6367123;28;20190;-71
2021/10/13 00:37:11;;;;;;;0.82;0.82;;;;;;;7.99;69.51;101255.81;6360283;28;20477;-71
2021/10/13 00:40:15;;;;;;;1.40;1.00;;;;;;;7.86;70.08;101247.50;6363066;28;20238;-70
2021/10/13 00:43:19;;;;;;;0.80;0.80;;;;;;;7.92;69.61;101250.31;6366084;28;20576;-70
2021/10/13 00:46:24;;;;;;;1.35;0.98;;;;;;;7.85;69.49;101254.00;6365362;28;20186;-70
2021/10/13 00:49:28;;;;;;;1.15;1.15;;;;;;;7.90;69.66;101262.41;6365287;28;20235;-71
2021/10/13 00:52:34;;;;;;;3.03;0.90;;;;;;;7.70;69.61;101267.59;6366319;28;20346;-71
2021/10/13 00:55:39;;;;;;;0.80;0.80;;;;;;;7.81;69.29;101258.09;6365374;28;20221;-71
2021/10/13 00:58:43;;;;;;;3.55;1.02;;;;;;;7.85;70.67;101262.13;6366433;28;20218;-73
2021/10/13 01:01:53;;;;;;;1.33;1.10;;;;;;;7.78;69.87;101261.22;6366260;28;20250;-71
2021/10/13 01:05:24;;;;;;;0.90;0.90;;;;;;;7.64;71.08;101259.34;6364854;28;20370;-71
2021/10/13 01:08:55;;;;;;;1.00;1.00;;;;;;;7.64;70.15;101252.03;6366115;28;20251;-71
2021/10/13 01:12:13;;;;;;;2.35;0.80;;;;;;;7.54;70.35;101268.63;6366109;28;20182;-71
2021/10/13 01:15:27;;;;;;;1.50;0.77;;;;;;;7.45;70.54;101266.16;6364658;28;20182;-72
2021/10/13 01:18:36;;;;;;;1.17;1.00;;;;;;;7.61;71.32;101268.69;6365519;28;20225;-72
2021/10/13 01:21:54;;;;;;;0.90;0.90;;;;;;;7.51;70.65;101269.00;6365898;28;20190;-72
2021/10/13 01:25:05;;;;;;;1.10;0.82;;;;;;;7.65;70.05;101270.03;6365751;28;20214;-71
2021/10/13 01:28:13;;;;;;;0.90;0.90;;;;;;;7.50;71.00;101272.72;6365325;28;20224;-71
2021/10/13 01:31:20;;;;;;;0.90;0.85;;;;;;;7.48;70.03;101273.94;6365678;28;20182;-72
2021/10/13 01:34:27;;;;;;;0.80;0.80;;;;;;;7.45;70.87;101269.72;6365622;28;20189;-72
2021/10/13 01:37:38;;;;;;;1.80;0.90;;;;;;;7.44;70.46;101278.91;6365409;28;20301;-72
2021/10/13 01:40:44;;;;;;;1.00;1.00;;;;;;;7.31;70.43;101278.72;6364133;28;20545;-71
2021/10/13 01:43:53;;;;;;;0.83;0.83;;;;;;;7.32;70.93;101287.66;6365258;28;20186;-71
2021/10/13 01:46:57;;;;;;;2.40;0.80;;;;;;;7.19;70.35;101291.03;6365332;28;20257;-71
2021/10/13 01:50:03;;;;;;;0.70;0.70;;;;;;;7.06;70.67;101285.38;6365205;28;20214;-71
2021/10/13 01:53:08;;;;;;;2.07;1.03;;;;;;;7.12;70.53;101287.38;6363635;28;20213;-71
2021/10/13 01:56:15;;;;;;;0.93;0.80;;;;;;;6.81;71.07;101302.88;6364743;28;20186;-71
2021/10/13 01:59:24;;;;;;;4.47;0.90;;;;;;;6.87;71.12;101294.03;6363881;28;20189;-70
2021/10/13 02:02:29;;;;;;;1.20;0.90;;;;;;;7.04;70.43;101297.44;6364866;28;20183;-71
2021/10/13 02:05:36;;;;;;;2.20;0.87;;;;;;;6.99;70.41;101306.13;6363071;28;20291;-72
2021/10/13 02:08:41;;;;;;;2.00;1.00;;;;;;;6.87;70.40;101297.59;6364776;28;20221;-72
2021/10/13 02:11:46;;;;;;;3.23;1.00;;;;;;;6.92;70.76;101299.75;6363321;28;20205;-71
2021/10/13 02:14:54;;;;;;;2.57;1.00;;;;;;;6.86;70.50;101303.19;6363380;28;20182;-71
2021/10/13 02:18:00;;;;;;;1.53;0.80;;;;;;;7.09;69.67;101295.88;6364137;28;20237;-71
2021/10/13 02:21:06;;;;;;;1.50;1.00;;;;;;;6.91;69.94;101293.47;6363044;28;20249;-72
2021/10/13 02:24:11;;;;;;;0.80;0.80;;;;;;;6.77;70.27;101297.00;6364355;28;20189;-71
2021/10/13 02:27:22;;;;;;;1.20;1.00;;;;;;;6.85;71.87;101296.09;6364022;28;20195;-71
2021/10/13 02:30:28;;;;;;;0.90;0.90;;;;;;;6.79;70.86;101302.22;6364230;28;20251;-71
2021/10/13 02:33:32;;;;;;;1.23;1.23;;;;;;;6.69;70.96;101315.19;6363720;28;20182;-71
2021/10/13 02:36:36;;;;;;;0.90;0.90;;;;;;;6.62;71.57;101314.22;6362298;28;20371;-72
2021/10/13 02:39:40;;;;;;;0.80;0.80;;;;;;;6.61;71.37;101320.66;6356235;28;20204;-72
2021/10/13 02:42:44;;;;;;;1.50;1.00;;;;;;;6.27;71.83;101316.47;6338741;28;20249;-71
2021/10/13 02:45:57;;;;;;;1.13;0.80;;;;;;;6.43;71.97;101325.50;6338468;28;20250;-71
2021/10/13 02:49:07;;;;;;;1.70;0.93;;;;;;;6.45;72.06;101323.47;6336945;28;20451;-72
2021/10/13 02:52:17;;;;;;;1.00;1.00;;;;;;;6.22;72.86;101324.28;6338324;28;20251;-71
2021/10/13 02:55:25;;;;;;;1.10;1.00;;;;;;;6.24;72.73;101338.47;6337348;28;20215;-71
2021/10/13 02:58:34;;;;;;;1.93;1.00;;;;;;;6.16;72.97;101335.00;6337975;28;20247;-71
2021/10/13 03:01:42;;;;;;;0.87;0.87;;;;;;;6.16;73.21;101335.81;6337759;28;20183;-72
2021/10/13 03:04:50;;;;;;;1.20;1.10;;;;;;;6.34;73.48;101326.59;6337233;28;20260;-72
2021/10/13 03:07:58;;;;;;;1.90;0.90;;;;;;;6.20;72.78;101339.88;6337050;28;20223;-72
2021/10/13 03:11:03;;;;;;;2.80;1.07;;;;;;;6.16;72.72;101335.00;6337592;28;20187;-72
2021/10/13 03:14:08;;;;;;;0.90;0.90;;;;;;;6.22;72.80;101329.69;6337842;28;20186;-72
2021/10/13 03:17:15;;;;;;;0.97;0.90;;;;;;;6.19;72.97;101330.03;6337367;28;20210;-72
2021/10/13 03:20:20;;;;;;;0.90;0.90;;;;;;;6.25;73.53;101339.34;6337853;28;20183;-72
2021/10/13 03:23:25;;;;;;;2.73;0.87;;;;;;;6.39;72.65;101345.88;6336484;28;20305;-72
2021/10/13 03:26:29;;;;;;;1.10;1.00;;;;;;;6.32;72.26;101341.16;6337541;28;20186;-72
2021/10/13 03:29:33;;;;;;;0.97;0.97;;;;;;;6.20;73.23;101331.75;6337202;28;20190;-72
2021/10/13 03:32:39;;;;;;;2.37;1.07;;;;;;;5.99;73.80;101333.34;6336866;28;20193;-73
2021/10/13 03:35:43;;;;;;;0.70;0.70;;;;;;;6.11;73.47;101338.19;6337578;28;20192;-72
2021/10/13 03:38:50;;;;;;;0.90;0.90;;;;;;;6.04;73.62;101331.81;6336242;28;20222;-72
2021/10/13 03:41:54;;;;;;;2.07;1.00;;;;;;;6.07;73.38;101336.88;6374118;28;20236;-72
2021/10/13 03:44:58;;;;;;;5.17;0.90;;;;;;;5.87;74.45;101346.44;6387079;28;20251;-72
2021/10/13 03:48:04;;;;;;;1.20;0.97;;;;;;;5.99;74.03;101339.63;6387061;28;20472;-72
2021/10/13 03:51:09;;;;;;;0.90;0.90;;;;;;;6.14;73.33;101337.84;6388067;28;20185;-72
2021/10/13 03:54:14;;;;;;;1.93;1.07;;;;;;;6.02;73.74;101344.69;6386967;28;20473;-72
2021/10/13 03:57:18;;;;;;;6.57;0.80;;;;;;;6.16;73.42;101335.81;6388138;28;20249;-72
2021/10/13 04:00:23;;;;;;;1.57;0.70;;;;;;;6.05;74.21;101338.94;6387349;28;20189;-72
2021/10/13 04:03:29;;;;;;;1.20;0.87;;;;;;;6.18;73.77;101346.50;6386849;28;20502;-72
2021/10/13 04:06:33;;;;;;;2.43;0.80;;;;;;;5.79;74.58;101359.97;6387230;28;20263;-72
2021/10/13 04:09:37;;;;;;;1.00;0.80;;;;;;;5.64;75.55;101362.53;6387785;28;20189;-72
2021/10/13 04:12:42;;;;;;;1.60;0.90;;;;;;;5.71;75.18;101373.50;6388148;28;20221;-72
2021/10/13 04:15:47;;;;;;;4.13;0.80;;;;;;;5.82;75.16;101378.59;6386707;28;20448;-72
2021/10/13 04:18:52;;;;;;;1.60;0.90;;;;;;;5.65;75.06;101385.03;6387605;28;20284;-72
2021/10/13 04:21:57;;;;;;;1.30;0.90;;;;;;;5.72;75.12;101390.63;6387604;28;20220;-72
2021/10/13 04:25:01;;;;;;;0.90;0.90;;;;;;;5.72;75.12;101380.63;6387581;28;20184;-72
2021/10/13 04:28:06;;;;;;;1.43;0.90;;;;;;;5.82;74.65;101375.03;6390056;27;20189;-72
2021/10/13 04:31:11;;;;;;;2.00;0.90;;;;;;;5.71;74.88;101373.50;6392436;27;20185;-72
2021/10/13 04:34:17;;;;;;;0.80;0.80;;;;;;;5.72;75.43;101372.50;6391760;27;20184;-73
2021/10/13 04:37:21;;;;;;;0.90;0.90;;;;;;;5.63;75.02;101377.09;6392354;27;20197;-73
2021/10/13 04:40:25;;;;;;;0.83;0.83;;;;;;;5.62;75.26;101379.97;6391344;27;20265;-72
2021/10/13 04:43:29;;;;;;;1.67;0.80;;;;;;;5.67;75.73;101377.59;6391470;27;20184;-72
2021/10/13 04:46:33;;;;;;;2.10;1.00;;;;;;;5.58;75.33;101381.31;6391996;27;20185;-72
2021/10/13 04:49:39;;;;;;;1.00;1.00;;;;;;;5.49;75.97;101379.66;6390834;27;20425;-72
2021/10/13 04:52:43;;;;;;;0.80;0.80;;;;;;;5.50;75.73;101370.50;6391216;27;20252;-72
2021/10/13 04:55:47;;;;;;;3.60;1.00;;;;;;;5.62;75.70;101379.97;6392184;27;20185;-72
2021/10/13 04:58:51;;;;;;;2.73;1.00;;;;;;;5.54;75.11;101374.56;6391588;27;20252;-73
2021/10/13 05:01:55;;;;;;;1.60;1.00;;;;;;;5.48;75.87;101388.78;6390529;27;20377;-73
2021/10/13 05:05:01;;;;;;;2.23;0.93;;;;;;;5.54;75.55;101388.09;6390405;27;20187;-72
2021/10/13 05:08:06;;;;;;;1.00;0.90;;;;;;;5.40;76.50;101394.19;6391727;27;20184;-72
2021/10/13 05:11:12;;;;;;;1.00;1.00;;;;;;;5.32;76.66;101394.19;6372750;27;20483;-72
2021/10/13 05:14:16;;;;;;;7.97;1.07;;;;;;;5.44;76.59;101409.09;6391188;27;20184;-73
2021/10/13 05:17:22;;;;;;;1.60;0.97;;;;;;;5.36;76.88;101390.16;6390123;27;20382;-72
2021/10/13 05:20:27;;;;;;;1.43;1.00;;;;;;;5.37;76.41;101403.50;6390083;27;20538;-72
2021/10/13 05:23:32;;;;;;;2.00;1.00;;;;;;;5.36;76.23;101395.56;6389600;27;20200;-73
2021/10/13 05:26:36;;;;;;;4.80;0.80;;;;;;;5.20;77.10;101407.22;6391421;27;20189;-72
2021/10/13 05:29:41;;;;;;;5.00;1.00;;;;;;;5.35;76.89;101400.13;6390202;27;20189;-71
2021/10/13 05:32:45;;;;;;;2.57;1.00;;;;;;;5.44;76.37;101409.09;6389738;27;20411;-71
2021/10/13 05:35:50;;;;;;;3.97;1.00;;;;;;;5.35;76.76;101415.50;6389878;27;20206;-71
2021/10/13 05:38:55;;;;;;;1.00;1.00;;;;;;;5.37;77.46;101408.06;6390084;27;20375;-71
2021/10/13 05:41:59;;;;;;;0.80;0.80;;;;;;;5.22;77.66;101425.97;6389638;27;20294;-71
2021/10/13 05:45:04;;;;;;;1.00;1.00;;;;;;;5.22;77.30;101420.56;6390640;27;20185;-73
2021/10/13 05:48:10;;;;;;;1.20;1.10;;;;;;;5.16;77.85;101426.69;6390284;27;20184;-72
2021/10/13 05:51:16;;;;;;;0.97;0.97;;;;;;;5.14;77.66;101425.97;6389308;27;20478;-72
2021/10/13 05:54:21;;;;;;;0.90;0.90;;;;;;;5.18;78.36;101435.47;6390635;27;20183;-72
2021/10/13 05:57:25;;;;;;;0.60;0.60;;;;;;;5.19;77.21;101442.56;6390285;27;20184;-72
2021/10/13 06:00:30;;;;;;;0.90;0.90;;;;;;;5.28;77.28;101436.13;6389435;27;20243;-72
2021/10/13 06:03:34;;;;;;;2.43;1.07;;;;;;;5.27;77.08;101446.09;6388954;27;20214;-72
2021/10/13 06:06:39;;;;;;;0.80;0.80;;;;;;;5.29;77.34;101448.66;6389864;27;20246;-73
2021/10/13 06:09:43;;;;;;;3.20;1.13;;;;;;;5.25;77.63;101447.28;6389888;27;20187;-72
2021/10/13 06:12:48;;;;;;;4.00;1.10;;;;;;;5.40;76.93;101456.44;6389891;27;20191;-72
2021/10/13 06:15:53;;;;;;;1.53;1.20;;;;;;;5.41;76.62;101455.44;6389519;27;20183;-72
2021/10/13 06:18:57;;;;;;;1.03;1.00;;;;;;;5.37;76.75;101464.88;6388355;27;20206;-72
2021/10/13 06:22:02;;;;;;;1.90;1.07;;;;;;;5.43;76.91;101450.69;6389712;27;20215;-72
2021/10/13 06:25:07;;;;;;;4.63;1.27;;;;;;;5.42;76.38;101459.81;6388306;27;20216;-72
2021/10/13 06:28:14;;;;;;;6.37;1.30;;;;;;;5.37;76.84;101459.47;6389568;27;20266;-72
2021/10/13 06:31:23;;;;;;;1.60;0.90;;;;;;;5.40;76.79;101456.44;6389136;27;20187;-72
2021/10/13 06:34:27;;;;;;;1.00;1.00;;;;;;;5.50;76.98;101451.69;6387765;27;20525;-72
2021/10/13 06:37:34;;;;;;;0.90;0.90;;;;;;;5.44;77.54;101468.63;6372999;27;20321;-72
2021/10/13 06:40:38;;;;;;;3.27;1.07;;;;;;;5.55;76.09;101460.16;6354842;27;20270;-73
2021/10/13 06:43:43;;;;;;;1.10;0.97;;;;;;;5.63;76.14;101462.88;6389105;27;20291;-72
2021/10/13 06:46:49;;;;;;;1.10;1.00;;;;;;;5.64;76.38;101459.16;6389179;27;20219;-71
2021/10/13 06:49:54;;;;;;;2.73;1.00;;;;;;;5.57;76.38;101468.97;6388100;27;20243;-71
2021/10/13 06:52:59;;;;;;;0.93;0.90;;;;;;;5.58;76.07;101470.66;6387646;27;20461;-72
2021/10/13 06:56:04;;;;;;;0.93;0.93;;;;;;;5.78;76.06;101466.56;6388889;27;20184;-71
2021/10/13 06:59:08;;;;;;;1.57;1.10;;;;;;;5.68;75.93;101461.34;6388483;27;20198;-72
2021/10/13 07:02:13;;;;;;;3.80;0.90;;;;;;;5.87;76.25;101471.00;6388753;27;20189;-71
2021/10/13 07:05:17;;;;;;;4.10;0.93;;;;;;;5.97;75.38;101460.00;6387932;27;20198;-72
2021/10/13 07:08:23;;;;;;;4.33;1.00;;;;;;;6.12;74.80;101469.94;6388368;27;20189;-72
2021/10/13 07:11:27;;;;;;;1.00;1.00;;;;;;;6.19;74.54;101465.50;6388647;27;20232;-72
2021/10/13 07:14:31;;;;;;;0.83;0.83;;;;;;;5.96;75.93;101472.69;6387332;27;20474;-72
2021/10/13 07:17:36;;;;;;;1.33;1.23;;;;;;;6.17;74.88;101462.16;6388432;27;20219;-72
2021/10/13 07:20:40;;;;;;;1.13;1.13;;;;;;;6.16;75.73;101474.00;6388216;27;20209;-72
2021/10/13 07:23:45;;;;;;;4.90;1.00;;;;;;;6.03;75.61;101473.72;6388074;27;20183;-72
2021/10/13 07:26:49;;;;;;;2.93;0.83;;;;;;;5.96;75.38;101480.81;6387921;27;20183;-72
2021/10/13 07:29:57;;;;;;;1.63;0.90;;;;;;;5.97;76.60;101496.06;6388068;27;20187;-72
2021/10/13 07:33:01;;;;;;;1.47;1.10;;;;;;;5.96;75.89;101491.63;6387440;27;20246;-72
2021/10/13 07:36:06;;;;;;;1.60;0.90;;;;;;;6.08;77.07;101495.69;6387917;27;20217;-71
2021/10/13 07:39:12;;;;;;;0.80;0.80;;;;;;;6.08;76.21;101501.13;6388104;27;20199;-71
2021/10/13 07:42:17;;;;;;;3.60;0.97;;;;;;;6.10;75.97;101509.91;6387903;28;20241;-71
2021/10/13 07:45:21;;;;;;;0.90;0.90;;;;;;;5.99;75.66;101504.84;6386684;28;20215;-71
2021/10/13 07:48:25;;;;;;;2.83;1.00;;;;;;;5.99;75.91;101512.13;6387698;28;20183;-72
2021/10/13 07:51:30;;;;;;;1.23;0.80;;;;;;;6.02;75.91;101507.22;6387894;28;20223;-73
2021/10/13 07:54:35;;;;;;;1.30;0.90;;;;;;;6.09;75.58;101513.63;6386562;28;20184;-73
2021/10/13 07:57:39;;;;;;;3.30;1.00;;;;;;;6.18;75.65;101511.75;6386592;28;20192;-72
2021/10/13 08:00:43;;;;;;;1.03;0.90;;;;;;;6.21;75.51;101523.09;6386582;27;20264;-73
2021/10/13 08:03:48;;;;;;;3.03;1.00;;;;;;;6.21;75.56;101522.25;6390783;27;20188;-72
2021/10/13 08:06:53;;;;;;;2.47;1.00;;;;;;;6.19;75.61;101525.13;6391697;27;20302;-72
2021/10/13 08:09:58;;;;;;;0.80;0.80;;;;;;;6.24;76.37;101525.47;6392868;27;20184;-72
2021/10/13 08:13:02;;;;;;;1.13;0.90;;;;;;;6.34;75.18;101527.16;6392132;27;20228;-71
2021/10/13 08:16:07;;;;;;;1.90;1.20;;;;;;;6.45;75.22;101529.47;6392673;27;20184;-71
2021/10/13 08:19:11;;;;;;;3.17;1.00;;;;;;;6.41;75.41;101531.69;6392206;27;20222;-71
2021/10/13 08:22:16;;;;;;;0.97;0.97;;;;;;;6.50;75.51;101533.34;6392590;27;20213;-71
2021/10/13 08:25:21;;;;;;;1.10;1.10;;;;;;;6.40;75.67;101526.44;6391485;27;20220;-71
2021/10/13 08:28:25;;;;;;;2.67;1.00;;;;;;;6.57;75.20;101534.38;6391198;27;20418;-71
2021/10/13 08:31:29;;;;;;;2.47;1.10;;;;;;;6.46;75.33;101542.03;6392534;27;20218;-71
2021/10/13 08:34:34;;;;;;;1.80;1.00;;;;;;;6.40;74.86;101537.28;6392047;27;20185;-71
2021/10/13 08:37:38;;;;;;;0.77;0.77;;;;;;;6.57;74.79;101530.81;6392368;27;20292;-71
2021/10/13 08:40:44;;;;;;;0.93;0.93;;;;;;;6.72;74.85;101537.19;6391154;27;20410;-71
2021/10/13 08:43:48;;;;;;;0.80;0.80;;;;;;;6.74;75.88;101513.47;6391853;27;20216;-71
2021/10/13 08:46:55;;;;;;;3.13;1.00;;;;;;;6.69;74.77;101526.69;6390742;27;20189;-71
2021/10/13 08:49:59;;;;;;;0.90;0.90;;;;;;;6.62;74.56;101537.41;6391688;27;20216;-71
2021/10/13 08:53:06;;;;;;;0.80;0.80;;;;;;;6.70;74.15;101533.81;6391638;27;20211;-71
2021/10/13 08:56:13;;;;;;;1.20;0.90;;;;;;;6.70;74.16;101528.41;6391908;27;20185;-72
2021/10/13 08:59:40;;;;;;;0.93;0.80;;;;;;;6.72;74.13;101537.19;6390567;27;20457;-71
2021/10/13 09:02:45;;;;;;;0.90;0.90;;;;;;;6.71;73.71;101530.94;6390427;27;20358;-71
2021/10/13 09:05:49;;;;;;;4.73;1.10;;;;;;;6.79;73.80;101540.91;6391118;27;20254;-71
2021/10/13 09:08:58;;;;;;;0.90;0.90;;;;;;;6.95;73.40;101538.13;6389902;27;20232;-71
2021/10/13 09:12:05;;;;;;;3.53;1.10;;;;;;;7.00;73.12;101535.72;6390377;27;20348;-72
2021/10/13 09:15:12;;;;;;;1.23;0.80;;;;;;;6.98;72.84;101537.78;6389918;27;20192;-71
2021/10/13 09:18:20;;;;;;;4.03;1.07;;;;;;;7.04;73.13;101547.03;6390701;27;20277;-72
2021/10/13 09:21:45;;;;;;;1.00;1.00;;;;;;;7.07;72.52;101542.13;6390844;27;20271;-71
2021/10/13 09:24:52;;;;;;;3.10;1.20;;;;;;;7.19;72.02;101545.31;6390544;27;20253;-72
2021/10/13 09:27:58;;;;;;;2.40;1.10;;;;;;;7.11;72.42;101548.91;6390809;27;20181;-71
2021/10/13 09:31:14;;;;;;;3.50;0.90;;;;;;;7.11;71.95;101557.06;6391117;27;20217;-72
2021/10/13 09:34:19;;;;;;;1.10;0.90;;;;;;;7.19;72.10;101556.97;6390173;27;20189;-72
2021/10/13 09:37:24;;;;;;;2.10;0.90;;;;;;;7.30;71.68;101548.44;6376758;27;20236;-73
2021/10/13 09:40:30;;;;;;;2.33;0.77;;;;;;;7.30;72.00;101553.88;6387778;27;20329;-72
2021/10/13 09:43:37;;;;;;;1.30;1.20;;;;;;;7.35;72.72;101556.91;6390639;27;20206;-72
2021/10/13 09:46:42;;;;;;;1.00;1.00;;;;;;;7.36;71.35;101558.59;6390794;27;20249;-72
2021/10/13 09:49:50;;;;;;;1.80;1.10;;;;;;;7.50;71.43;101552.38;6390294;27;20182;-72
2021/10/13 09:52:54;;;;;;;1.20;1.00;;;;;;;7.41;70.48;101556.19;6389504;27;20411;-72
2021/10/13 09:55:58;;;;;;;2.23;1.00;;;;;;;7.44;70.16;101555.84;6389107;27;20474;-72
2021/10/13 09:59:12;;;;;;;0.80;0.80;;;;;;;7.47;69.96;101560.88;6390220;27;20196;-72
2021/10/13 10:02:16;;;;;;;1.90;0.80;;;;;;;7.58;69.91;101559.63;6389111;27;20512;-75
2021/10/13 10:05:25;;;;;;;1.27;0.93;;;;;;;7.64;69.78;101566.22;6389870;27;20181;-72
2021/10/13 10:08:29;;;;;;;0.90;0.90;;;;;;;7.71;69.52;101568.03;6389356;27;20182;-72
2021/10/13 10:11:35;;;;;;;1.63;0.80;;;;;;;7.79;68.98;101567.97;6390173;27;20253;-72
2021/10/13 10:14:45;;;;;;;1.00;1.00;;;;;;;7.69;69.55;101564.66;6390168;27;20216;-72
2021/10/13 10:17:49;;;;;;;1.80;1.33;;;;;;;7.81;70.23;101556.91;6390093;27;20201;-72
2021/10/13 10:20:55;;;;;;;1.55;0.90;;;;;;;7.94;69.51;101562.59;6389857;27;20213;-72
2021/10/13 10:24:19;;;;;;;1.07;1.00;;;;;;;7.93;68.40;101566.34;6388162;27;20480;-72
2021/10/13 10:27:30;;;;;;;0.80;0.80;;;;;;;8.04;68.33;101557.75;6390917;27;20186;-72
2021/10/13 10:30:35;;;;;;;1.80;1.00;;;;;;;7.96;66.83;101566.81;6390321;27;20188;-72
2021/10/13 10:33:49;;;;;;;5.88;0.98;;;;;;;8.04;67.16;101565.91;6390548;27;20200;-72
2021/10/13 10:37:14;;;;;;;1.60;0.90;;;;;;;8.06;68.05;101550.28;6391017;27;20181;-72
2021/10/13 10:40:22;;;;;;;2.13;0.93;;;;;;;8.06;67.35;101561.16;6390170;27;20300;-72
2021/10/13 10:43:28;;;;;;;0.80;0.70;;;;;;;8.13;66.59;101556.66;6389896;27;20412;-73
2021/10/13 10:47:01;;;;;;;0.82;0.82;;;;;;;8.17;66.88;101558.81;6390307;27;20247;-72
2021/10/13 10:50:07;;;;;;;1.50;0.80;;;;;;;8.08;65.38;101564.53;6390878;27;20192;-72
2021/10/13 10:53:27;;;;;;;0.90;0.90;;;;;;;8.09;64.96;101556.19;6389554;27;20489;-72
2021/10/13 10:56:31;;;;;;;0.70;0.70;;;;;;;8.26;65.60;101573.19;6390042;27;20213;-73
2021/10/13 10:59:39;;;;;;;1.00;1.00;;;;;;;8.29;65.44;101562.00;6389486;27;20242;-73
2021/10/13 11:02:45;;;;;;;0.70;0.65;;;;;;;8.34;65.10;101559.56;6389404;27;20206;-73
2021/10/13 11:05:50;;;;;;;2.55;0.77;;;;;;;8.45;65.73;101555.56;6389997;27;20219;-73
2021/10/13 11:09:02;;;;;;;1.95;1.00;;;;;;;8.57;66.44;101565.78;6389638;27;20185;-72
2021/10/13 11:12:06;;;;;;;0.90;0.90;;;;;;;8.66;67.39;101570.09;6388475;27;20238;-72
2021/10/13 11:15:12;;;;;;;2.22;1.10;;;;;;;8.75;66.36;101558.09;6388775;27;20465;-73
2021/10/13 11:18:18;;;;;;;2.70;1.08;;;;;;;8.69;65.30;101569.72;6388697;27;20394;-73
2021/10/13 11:21:22;;;;;;;1.33;1.33;;;;;;;8.77;64.72;101566.06;6388612;27;20181;-73
2021/10/13 11:24:27;;;;;;;1.00;1.00;;;;;;;8.94;66.08;101566.69;6388666;27;20513;-73
2021/10/13 11:27:31;;;;;;;3.60;0.85;;;;;;;8.87;64.99;101579.38;6389778;27;20226;-72
2021/10/13 11:30:38;;;;;;;1.80;1.20;;;;;;;8.90;64.01;101581.72;6388216;27;20205;-72
2021/10/13 11:33:43;;;;;;;2.25;1.00;;;;;;;9.00;63.75;101582.28;6389769;27;20183;-72
2021/10/13 11:36:53;;;;;;;1.20;1.20;;;;;;;9.14;62.81;101578.72;6385003;27;20196;-72
2021/10/13 11:39:57;;;;;;;4.13;1.00;;;;;;;9.28;63.63;101575.09;6377756;27;20408;-72
2021/10/13 11:43:08;;;;;;;1.13;0.90;;;;;;;9.29;63.50;101587.69;6389469;28;20294;-72
2021/10/13 11:46:16;;;;;;;1.10;1.00;;;;;;;9.22;64.05;101582.16;6389903;28;20201;-73
2021/10/13 11:49:22;;;;;;;1.45;0.90;;;;;;;9.41;63.40;101578.00;6389351;28;20213;-73
2021/10/13 11:52:27;;;;;;;1.05;1.05;;;;;;;9.49;63.23;101577.88;6387183;28;20264;-72
2021/10/13 11:55:33;;;;;;;0.70;0.70;;;;;;;9.43;62.32;101584.09;6386793;28;20189;-73
2021/10/13 11:58:37;;;;;;;1.85;0.88;;;;;;;9.30;62.92;101578.47;6387674;28;20188;-72
2021/10/13 12:01:42;;;;;;;1.77;0.73;;;;;;;9.40;63.77;101573.56;6388005;28;20223;-72
2021/10/13 12:04:51;;;;;;;2.20;0.77;;;;;;;9.27;62.15;101578.88;6388022;28;20273;-73
2021/10/13 12:08:02;;;;;;;4.28;1.10;;;;;;;9.52;62.62;101579.38;6387614;28;20224;-73
2021/10/13 12:11:08;;;;;;;0.70;0.70;;;;;;;9.69;61.80;101572.66;6388105;28;20182;-73
2021/10/13 12:14:15;;;;;;;3.45;0.80;;;;;;;9.55;61.93;101582.59;6387949;28;20189;-73
2021/10/13 12:17:39;;;;;;;2.22;0.80;;;;;;;9.72;63.07;101577.72;6387897;28;20259;-73
2021/10/13 12:20:47;;;;;;;2.67;0.88;;;;;;;9.74;63.23;101576.47;6387244;28;20221;-72
2021/10/13 12:23:58;;;;;;;0.60;0.60;;;;;;;9.83;62.54;101575.34;6386315;28;20209;-73
2021/10/13 12:27:03;;;;;;;3.15;0.90;;;;;;;9.64;63.51;101586.84;6387505;28;20181;-72
2021/10/13 12:30:08;;;;;;;1.23;0.90;;;;;;;9.72;63.49;101597.63;6387842;28;20213;-73
2021/10/13 12:33:16;;;;;;;0.90;0.80;;;;;;;9.74;62.55;101595.56;6387527;28;20254;-73
2021/10/13 12:36:23;;;;;;;1.55;0.90;;;;;;;9.77;61.27;101592.44;6386498;28;20206;-73
2021/10/13 12:39:30;;;;;;;1.45;0.82;;;;;;;9.62;61.66;101586.22;6387144;28;20197;-73
2021/10/13 12:42:34;;;;;;;1.42;1.00;;;;;;;9.74;61.79;101587.38;6387320;28;20398;-72
2021/10/13 12:45:38;;;;;;;1.08;0.70;;;;;;;9.79;62.77;101589.53;6386152;28;20469;-71
2021/10/13 12:48:42;;;;;;;1.20;0.68;;;;;;;9.80;62.23;101591.22;6388568;27;20438;-73
2021/10/13 12:51:55;;;;;;;2.03;0.85;;;;;;;9.63;59.17;101604.22;6392061;27;20227;-72
2021/10/13 12:54:59;;;;;;;0.70;0.70;;;;;;;9.61;59.91;101589.97;6392106;27;20217;-72
2021/10/13 12:58:04;;;;;;;1.23;0.75;;;;;;;9.56;59.31;101595.16;6391637;27;20185;-72
2021/10/13 13:01:09;;;;;;;1.85;0.88;;;;;;;9.50;60.58;101601.34;6390917;27;20182;-72
2021/10/13 13:04:14;;;;;;;1.08;0.70;;;;;;;9.59;60.54;101599.38;6391104;27;20209;-72
2021/10/13 13:07:19;;;;;;;0.90;0.90;;;;;;;9.50;60.82;101606.78;6391763;27;20182;-72
2021/10/13 13:10:23;;;;;;;0.82;0.82;;;;;;;9.63;60.56;101601.50;6391341;27;20189;-71
2021/10/13 13:13:27;;;;;;;0.70;0.70;;;;;;;9.65;61.89;101604.91;6390352;27;20185;-72
2021/10/13 13:16:34;;;;;;;0.80;0.80;;;;;;;9.49;60.03;101605.13;6391214;27;20193;-72
2021/10/13 13:19:38;;;;;;;0.90;0.90;;;;;;;9.48;59.44;101603.44;6391145;27;20197;-72
2021/10/13 13:22:43;;;;;;;0.93;0.90;;;;;;;9.57;59.94;101607.75;6390041;27;20375;-72
2021/10/13 13:25:47;;;;;;;1.30;0.90;;;;;;;9.63;60.55;101593.34;6389724;27;20498;-73
2021/10/13 13:28:52;;;;;;;0.73;0.73;;;;;;;9.59;61.43;101605.66;6390760;27;20213;-72
2021/10/13 13:31:57;;;;;;;0.90;0.90;;;;;;;9.39;60.03;101604.59;6390619;27;20252;-72
2021/10/13 13:35:11;;;;;;;1.83;0.98;;;;;;;9.28;60.21;101607.78;6390469;27;20249;-72
2021/10/13 13:38:18;;;;;;;1.95;0.70;;;;;;;9.38;60.46;101611.91;6389443;27;20201;-71
2021/10/13 13:41:23;;;;;;;1.55;1.00;;;;;;;9.52;60.25;101610.19;6389321;27;20562;-72
2021/10/13 13:44:28;;;;;;;0.80;0.80;;;;;;;9.60;60.83;101606.50;6390232;27;20210;-72
2021/10/13 13:47:37;;;;;;;0.93;0.75;;;;;;;9.42;60.97;101609.66;6390678;27;20181;-71
2021/10/13 13:50:41;;;;;;;3.00;0.80;;;;;;;9.48;60.83;101603.44;6390030;27;20182;-72
2021/10/13 13:53:46;;;;;;;3.00;0.75;;;;;;;9.29;61.03;101614.94;6390462;27;20192;-72
2021/10/13 13:56:50;;;;;;;0.95;0.75;;;;;;;9.19;60.58;101614.38;6391255;27;20199;-72
2021/10/13 13:59:55;;;;;;;3.03;0.70;;;;;;;9.15;60.84;101623.94;6390275;27;20244;-72
2021/10/13 14:02:59;;;;;;;1.58;0.70;;;;;;;9.04;59.98;101622.53;6389835;27;20264;-72
2021/10/13 14:06:03;;;;;;;4.32;0.60;;;;;;;8.90;61.28;101619.81;6388721;27;20516;-72
2021/10/13 14:09:09;;;;;;;1.08;0.63;;;;;;;8.97;60.50;101615.31;6390340;27;20188;-72
2021/10/13 14:12:13;;;;;;;2.03;0.80;;;;;;;9.02;60.30;101618.31;6389321;27;20188;-72
2021/10/13 14:15:18;;;;;;;1.67;0.93;;;;;;;8.99;60.63;101624.16;6390293;27;20252;-72
2021/10/13 14:18:22;;;;;;;0.85;0.85;;;;;;;9.30;59.84;101624.78;6388642;27;20477;-72
2021/10/13 14:21:26;;;;;;;3.13;0.77;;;;;;;9.16;60.61;101626.50;6389593;27;20181;-72
2021/10/13 14:24:32;;;;;;;1.00;0.90;;;;;;;9.15;60.49;101623.94;6388476;27;20217;-72
2021/10/13 14:27:36;;;;;;;4.03;0.70;;;;;;;9.26;60.50;101628.94;6389566;27;20182;-72
2021/10/13 14:30:40;;;;;;;1.25;0.90;;;;;;;9.06;62.22;101635.97;6388496;27;20465;-72
2021/10/13 14:33:46;;;;;;;2.28;0.88;;;;;;;9.06;60.79;101636.84;6388300;27;20221;-73
2021/10/13 14:36:51;;;;;;;2.17;0.60;;;;;;;9.01;60.65;101638.44;6387883;27;20407;-73